createdAt,value
2023-01-17T00:00:45.749Z,160107.03
2023-01-17T00:04:08.324Z,160121.34
2023-01-17T00:07:32.190Z,160122.66
2023-01-17T00:10:40.418Z,160114.88
2023-01-17T00:13:44.529Z,160129.19
2023-01-17T00:16:48.369Z,160146.19
2023-01-17T00:20:10.788Z,160147.50
2023-01-17T00:23:42.529Z,160160.53
2023-01-17T00:27:05.424Z,160121.34
2023-01-17T00:30:10.501Z,160087.41
2023-01-17T00:33:14.312Z,160075.72
2023-01-17T00:36:18.332Z,160058.72
2023-01-17T00:39:22.147Z,160048.28
2023-01-17T00:42:25.945Z,160066.59
2023-01-17T00:45:48.657Z,160035.25
2023-01-17T00:49:11.540Z,160048.28
2023-01-17T00:52:34.020Z,160060.03
2023-01-17T00:55:56.759Z,160058.72
2023-01-17T00:59:19.485Z,160052.19
2023-01-17T01:02:43.212Z,160053.53
2023-01-17T01:06:05.912Z,160057.44
2023-01-17T01:09:28.681Z,160048.28
2023-01-17T01:12:51.833Z,160058.72
2023-01-17T01:16:14.212Z,160050.88
2023-01-17T01:19:37.127Z,160056.13
2023-01-17T01:23:00.157Z,160069.19
2023-01-17T01:26:22.742Z,160067.88
2023-01-17T01:29:45.912Z,160073.13
2023-01-17T01:33:08.816Z,160093.97
2023-01-17T01:36:13.315Z,160100.47
2023-01-17T01:39:17.351Z,160088.72
2023-01-17T01:42:21.308Z,160090.06
2023-01-17T01:45:29.967Z,160101.81
2023-01-17T01:48:38.001Z,160113.56
2023-01-17T01:51:46.468Z,160144.91
2023-01-17T01:54:56.029Z,160140.97
2023-01-17T01:58:04.425Z,160131.81
2023-01-17T02:01:09.442Z,160133.09
2023-01-17T02:04:14.904Z,160131.81
2023-01-17T02:07:41.632Z,160109.63
2023-01-17T02:10:46.097Z,160086.13
2023-01-17T02:13:50.053Z,160090.06
2023-01-17T02:17:19.773Z,160069.19
2023-01-17T02:20:52.735Z,160045.69
2023-01-17T02:24:30.338Z,160011.75
2023-01-17T02:28:04.057Z,160024.84
2023-01-17T02:31:34.287Z,160028.75
2023-01-17T02:34:54.137Z,159993.50
2023-01-17T02:37:58.226Z,160003.94
2023-01-17T02:41:16.222Z,160009.13
2023-01-17T02:44:21.339Z,160024.84
2023-01-17T02:47:27.752Z,160017.00
2023-01-17T02:50:48.668Z,160003.94
2023-01-17T02:54:04.816Z,159986.97
2023-01-17T02:57:24.133Z,159985.66
2023-01-17T03:00:53.220Z,159962.16
2023-01-17T03:04:03.555Z,159988.25
2023-01-17T03:07:16.411Z,159989.59
2023-01-17T03:10:21.571Z,159970.00
2023-01-17T03:13:25.623Z,159985.66
2023-01-17T03:16:34.432Z,159960.84
2023-01-17T03:19:38.196Z,159994.81
2023-01-17T03:22:42.057Z,159976.50
2023-01-17T03:25:46.154Z,159959.56
2023-01-17T03:28:50.634Z,159949.16
2023-01-17T03:31:54.645Z,159949.16
2023-01-17T03:34:58.430Z,159938.66
2023-01-17T03:38:02.119Z,159929.56
2023-01-17T03:41:06.764Z,159949.16
2023-01-17T03:44:10.606Z,159954.38
2023-01-17T03:47:14.619Z,159940.00
2023-01-17T03:50:18.892Z,159954.38
2023-01-17T03:53:23.057Z,159949.16
2023-01-17T03:56:27.004Z,159956.97
2023-01-17T03:59:34.255Z,159956.97
2023-01-17T04:02:38.509Z,159950.47
2023-01-17T04:05:42.536Z,159968.69
2023-01-17T04:08:46.811Z,159953.06
2023-01-17T04:11:50.962Z,159950.47
2023-01-17T04:14:54.913Z,159950.47
2023-01-17T04:17:58.801Z,159928.25
2023-01-17T04:21:02.954Z,159916.50
2023-01-17T04:24:07.619Z,159895.66
2023-01-17T04:27:14.200Z,159890.41
2023-01-17T04:30:18.516Z,159890.41
2023-01-17T04:33:22.506Z,159881.25
2023-01-17T04:36:26.622Z,159860.41
2023-01-17T04:39:30.686Z,159868.25
2023-01-17T04:42:34.820Z,159852.59
2023-01-17T04:45:38.810Z,159839.50
2023-01-17T04:48:42.804Z,159857.81
2023-01-17T04:51:46.743Z,159863.06
2023-01-17T04:54:51.635Z,159863.06
2023-01-17T04:57:56.080Z,159835.59
2023-01-17T05:01:05.306Z,159881.25
2023-01-17T05:04:09.526Z,159848.66
2023-01-17T05:07:14.019Z,159848.66
2023-01-17T05:10:17.972Z,159846.06
2023-01-17T05:13:22.012Z,159827.78
2023-01-17T05:16:26.138Z,159831.69
2023-01-17T05:19:30.588Z,159825.22
2023-01-17T05:22:34.392Z,159850.00
2023-01-17T05:25:39.090Z,159860.41
2023-01-17T05:28:43.360Z,159857.81
2023-01-17T05:31:47.402Z,159856.50
2023-01-17T05:34:51.395Z,159846.06
2023-01-17T05:37:55.942Z,159846.06
2023-01-17T05:41:04.969Z,159842.16
2023-01-17T05:44:08.971Z,159834.31
2023-01-17T05:47:13.190Z,159838.25
2023-01-17T05:50:21.211Z,159842.16
2023-01-17T05:53:25.085Z,159846.06
2023-01-17T05:56:28.925Z,159872.22
2023-01-17T05:59:37.498Z,159886.50
2023-01-17T06:02:41.438Z,159893.00
2023-01-17T06:05:46.176Z,159911.31
2023-01-17T06:08:50.822Z,159904.81
2023-01-17T06:11:55.279Z,159903.47
2023-01-17T06:14:59.716Z,159924.34
2023-01-17T06:18:11.731Z,159923.00
2023-01-17T06:21:16.171Z,159908.72
2023-01-17T06:24:20.357Z,159915.22
2023-01-17T06:27:25.037Z,159907.41
2023-01-17T06:30:28.979Z,159887.81
2023-01-17T06:33:33.348Z,159876.06
2023-01-17T06:36:37.674Z,159873.44
2023-01-17T06:39:41.990Z,159881.25
2023-01-17T06:42:46.143Z,159887.81
2023-01-17T06:45:51.362Z,159879.97
2023-01-17T06:48:55.869Z,159894.31
2023-01-17T06:52:00.139Z,159891.72
2023-01-17T06:55:04.560Z,159902.16
2023-01-17T06:58:09.716Z,159898.25
2023-01-17T07:01:14.160Z,159894.31
2023-01-17T07:04:18.626Z,159879.97
2023-01-17T07:07:23.138Z,159900.88
2023-01-17T07:10:27.199Z,159872.22
2023-01-17T07:13:36.443Z,159863.06
2023-01-17T07:16:40.885Z,159850.00
2023-01-17T07:19:44.900Z,159859.13
2023-01-17T07:22:49.077Z,159839.50
2023-01-17T07:25:57.706Z,159834.31
2023-01-17T07:29:02.114Z,159831.69
2023-01-17T07:32:08.873Z,159818.66
2023-01-17T07:35:12.583Z,159829.09
2023-01-17T07:38:18.430Z,159823.91
2023-01-17T07:41:22.766Z,159840.84
2023-01-17T07:44:26.758Z,159827.78
2023-01-17T07:47:30.846Z,159813.50
2023-01-17T07:50:35.135Z,159784.75
2023-01-17T07:53:39.001Z,159800.41
2023-01-17T07:56:47.004Z,159800.41
2023-01-17T07:59:52.149Z,159786.03
2023-01-17T08:03:01.206Z,159769.09
2023-01-17T08:06:06.565Z,159766.50
2023-01-17T08:09:10.735Z,159784.75
2023-01-17T08:12:15.661Z,159783.44
2023-01-17T08:15:20.742Z,159797.81
2023-01-17T08:18:24.984Z,159779.53
2023-01-17T08:21:28.932Z,159753.44
2023-01-17T08:24:33.277Z,159757.38
2023-01-17T08:27:37.387Z,159748.22
2023-01-17T08:30:47.422Z,159769.09
2023-01-17T08:33:54.061Z,159783.44
2023-01-17T08:36:58.309Z,159816.06
2023-01-17T08:40:04.000Z,159839.50
2023-01-17T08:43:08.348Z,159853.91
2023-01-17T08:46:12.463Z,159853.91
2023-01-17T08:49:16.249Z,159831.69
2023-01-17T08:52:20.398Z,159800.41
2023-01-17T08:55:24.230Z,159800.41
2023-01-17T08:58:30.671Z,159763.91
2023-01-17T09:01:40.609Z,159766.50
2023-01-17T09:04:45.787Z,159754.78
2023-01-17T09:07:49.719Z,159756.09
2023-01-17T09:10:53.716Z,159782.13
2023-01-17T09:13:57.688Z,159822.63
2023-01-17T09:17:02.101Z,159853.91
2023-01-17T09:20:06.922Z,159860.41
2023-01-17T09:23:10.859Z,159860.41
2023-01-17T09:26:19.087Z,159877.34
2023-01-17T09:29:22.833Z,159932.16
2023-01-17T09:32:26.966Z,160090.06
2023-01-17T09:35:31.419Z,160182.72
2023-01-17T09:38:36.308Z,160258.44
2023-01-17T09:41:54.614Z,160302.78
2023-01-17T09:44:59.033Z,160283.25
2023-01-17T09:48:09.765Z,160255.84
2023-01-17T09:51:19.771Z,160253.22
2023-01-17T09:54:27.544Z,160225.81
2023-01-17T09:58:00.182Z,160219.31
2023-01-17T10:01:35.838Z,160177.53
2023-01-17T10:04:52.301Z,160135.75
2023-01-17T10:08:14.250Z,160131.81
2023-01-17T10:11:41.675Z,160117.47
2023-01-17T10:14:56.216Z,160131.81
2023-01-17T10:18:28.827Z,160156.66
2023-01-17T10:21:59.078Z,160137.06
2023-01-17T10:25:29.951Z,160101.81
2023-01-17T10:28:39.969Z,160091.38
2023-01-17T10:31:53.685Z,160063.97
2023-01-17T10:35:02.132Z,160032.66
2023-01-17T10:38:11.982Z,160003.94
2023-01-17T10:41:34.275Z,160020.91
2023-01-17T10:44:50.851Z,159996.16
2023-01-17T10:48:16.642Z,159996.16
2023-01-17T10:51:43.104Z,160035.25
2023-01-17T10:55:04.975Z,160050.88
2023-01-17T10:58:13.078Z,160061.34
2023-01-17T11:01:20.584Z,160063.97
2023-01-17T11:04:34.996Z,160037.84
2023-01-17T11:07:40.188Z,160054.78
2023-01-17T11:10:48.781Z,160024.84
2023-01-17T11:13:54.785Z,160003.94
2023-01-17T11:17:04.495Z,160033.94
2023-01-17T11:20:17.552Z,160056.13
2023-01-17T11:23:26.239Z,160043.03
2023-01-17T11:26:33.126Z,160027.44
2023-01-17T11:29:39.604Z,160024.84
2023-01-17T11:32:56.068Z,160075.72
2023-01-17T11:36:00.113Z,160151.41
2023-01-17T11:39:07.129Z,160185.38
2023-01-17T11:42:35.497Z,160189.28
2023-01-17T11:45:40.831Z,160161.84
2023-01-17T11:48:55.973Z,160160.53
2023-01-17T11:52:02.503Z,160152.75
2023-01-17T11:55:07.088Z,160148.81
2023-01-17T11:58:15.015Z,160152.75
2023-01-17T12:01:42.567Z,160120.06
2023-01-17T12:05:03.452Z,160163.13
2023-01-17T12:08:30.364Z,160163.13
2023-01-17T12:12:09.479Z,160218.00
2023-01-17T12:15:16.678Z,160283.25
2023-01-17T12:18:35.953Z,160327.63
2023-01-17T12:21:43.159Z,160338.06
2023-01-17T12:25:20.867Z,160284.56
2023-01-17T12:28:44.696Z,160262.38
2023-01-17T12:32:00.178Z,160236.25
2023-01-17T12:35:25.782Z,160172.28
2023-01-17T12:38:39.144Z,160086.13
2023-01-17T12:41:58.771Z,160061.34
2023-01-17T12:45:09.735Z,160061.34
2023-01-17T12:48:19.804Z,160075.72
2023-01-17T12:51:43.440Z,160096.56
2023-01-17T12:54:56.911Z,160131.81
2023-01-17T12:58:06.248Z,160147.50
2023-01-17T13:01:29.797Z,160126.59
2023-01-17T13:04:57.426Z,160164.44
2023-01-17T13:08:43.694Z,160161.84
2023-01-17T13:11:56.785Z,160181.44
2023-01-17T13:15:02.940Z,160163.13
2023-01-17T13:18:14.441Z,160157.88
2023-01-17T13:21:36.541Z,160138.34
2023-01-17T13:25:03.163Z,160127.91
2023-01-17T13:28:37.842Z,160138.34
2023-01-17T13:31:50.518Z,160161.84
2023-01-17T13:35:19.288Z,160173.59
2023-01-17T13:38:44.649Z,160172.28
2023-01-17T13:41:58.259Z,160170.97
2023-01-17T13:45:08.339Z,160152.75
2023-01-17T13:48:12.319Z,160165.78
2023-01-17T13:51:19.685Z,160164.44
2023-01-17T13:54:33.938Z,160177.53
2023-01-17T13:57:43.519Z,160169.69
2023-01-17T14:00:49.394Z,160147.50
2023-01-17T14:03:53.552Z,160163.13
2023-01-17T14:07:01.116Z,160161.84
2023-01-17T14:10:32.316Z,160167.03
2023-01-17T14:13:40.237Z,160163.13
2023-01-17T14:16:46.252Z,160152.75
2023-01-17T14:19:52.508Z,160134.41
2023-01-17T14:23:02.285Z,160116.19
2023-01-17T14:26:59.319Z,160109.63
2023-01-17T14:30:06.997Z,160107.03
2023-01-17T14:33:18.413Z,160097.88
2023-01-17T14:36:27.796Z,160113.56
2023-01-17T14:39:31.847Z,160074.44
2023-01-17T14:42:36.057Z,160070.53
2023-01-17T14:45:42.037Z,160080.94
2023-01-17T14:48:46.130Z,160067.88
2023-01-17T14:52:00.911Z,160053.53
2023-01-17T14:55:15.404Z,160048.28
2023-01-17T14:58:21.664Z,160043.03
2023-01-17T15:01:25.569Z,160035.25
2023-01-17T15:04:35.411Z,160048.28
2023-01-17T15:07:39.734Z,160026.09
2023-01-17T15:10:49.770Z,160026.09
2023-01-17T15:13:57.448Z,160024.84
2023-01-17T15:17:18.660Z,160035.25
2023-01-17T15:20:23.658Z,160018.28
2023-01-17T15:23:33.442Z,160006.50
2023-01-17T15:26:42.339Z,159983.06
2023-01-17T15:29:47.337Z,159956.97
2023-01-17T15:32:51.644Z,159953.06
2023-01-17T15:36:21.217Z,159941.31
2023-01-17T15:39:31.917Z,159934.75
2023-01-17T15:42:39.012Z,159923.00
2023-01-17T15:45:55.360Z,159930.84
2023-01-17T15:49:18.956Z,159926.94
2023-01-17T15:52:22.968Z,159910.00
2023-01-17T15:55:35.411Z,159917.78
2023-01-17T15:58:39.503Z,159912.63
2023-01-17T16:01:53.607Z,159902.16
2023-01-17T16:05:02.151Z,159891.72
2023-01-17T16:08:06.200Z,159877.34
2023-01-17T16:11:11.703Z,159890.41
2023-01-17T16:14:17.670Z,159883.91
2023-01-17T16:17:22.121Z,159890.41
2023-01-17T16:20:30.666Z,159883.91
2023-01-17T16:23:34.456Z,159881.25
2023-01-17T16:26:38.249Z,159881.25
2023-01-17T16:29:42.146Z,159874.75
2023-01-17T16:32:49.006Z,159861.72
2023-01-17T16:35:54.380Z,159864.34
2023-01-17T16:38:58.572Z,159857.81
2023-01-17T16:42:02.998Z,159851.31
2023-01-17T16:45:07.186Z,159844.75
2023-01-17T16:48:12.333Z,159836.91
2023-01-17T16:51:16.924Z,159836.91
2023-01-17T16:54:20.950Z,159835.59
2023-01-17T16:57:24.698Z,159817.41
2023-01-17T17:00:28.771Z,159799.09
2023-01-17T17:03:32.755Z,159756.09
2023-01-17T17:06:37.069Z,159741.72
2023-01-17T17:09:41.345Z,159713.03
2023-01-17T17:12:46.384Z,159689.56
2023-01-17T17:15:50.830Z,159692.16
2023-01-17T17:18:57.306Z,159673.91
2023-01-17T17:22:02.014Z,159649.13
2023-01-17T17:25:07.135Z,159640.03
2023-01-17T17:28:11.638Z,159667.41
2023-01-17T17:31:15.700Z,159651.75
2023-01-17T17:34:19.919Z,159623.06
2023-01-17T17:37:23.901Z,159591.75
2023-01-17T17:40:27.994Z,159570.88
2023-01-17T17:43:38.200Z,159546.13
2023-01-17T17:46:42.881Z,159520.06
2023-01-17T17:49:46.803Z,159505.69
2023-01-17T17:52:50.552Z,159495.34
2023-01-17T17:55:54.472Z,159477.06
2023-01-17T17:59:00.280Z,159471.81
2023-01-17T18:02:10.511Z,159500.53
2023-01-17T18:05:14.886Z,159512.25
2023-01-17T18:08:18.971Z,159507.03
2023-01-17T18:11:26.039Z,159516.16
2023-01-17T18:14:30.657Z,159491.44
2023-01-17T18:17:34.658Z,159480.97
2023-01-17T18:20:38.718Z,159473.16
2023-01-17T18:23:44.686Z,159461.41
2023-01-17T18:26:50.219Z,159466.63
2023-01-17T18:29:54.432Z,159490.09
2023-01-17T18:32:58.473Z,159475.72
2023-01-17T18:36:04.671Z,159484.88
2023-01-17T18:39:15.198Z,159478.38
2023-01-17T18:42:20.306Z,159495.34
2023-01-17T18:45:24.856Z,159484.88
2023-01-17T18:48:29.370Z,159483.59
2023-01-17T18:51:34.698Z,159464.00
2023-01-17T18:54:38.785Z,159456.19
2023-01-17T18:57:42.979Z,159437.94
2023-01-17T19:00:50.235Z,159413.22
2023-01-17T19:03:57.675Z,159389.72
2023-01-17T19:07:01.981Z,159354.59
2023-01-17T19:10:06.561Z,159323.25
2023-01-17T19:13:11.331Z,159307.63
2023-01-17T19:16:19.801Z,159310.22
2023-01-17T19:19:24.657Z,159302.41
2023-01-17T19:22:28.873Z,159285.44
2023-01-17T19:25:36.434Z,159275.09
2023-01-17T19:28:42.615Z,159271.19
2023-01-17T19:31:46.878Z,159258.13
2023-01-17T19:34:51.081Z,159263.38
2023-01-17T19:37:55.750Z,159251.63
2023-01-17T19:41:17.817Z,159249.00
2023-01-17T19:44:22.071Z,159229.47
2023-01-17T19:47:26.213Z,159251.63
2023-01-17T19:50:30.385Z,159286.75
2023-01-17T19:53:35.961Z,159288.06
2023-01-17T19:56:40.159Z,159294.56
2023-01-17T19:59:44.307Z,159290.66
2023-01-17T20:02:48.513Z,159299.81
2023-01-17T20:05:56.522Z,159277.69
2023-01-17T20:09:00.364Z,159265.94
2023-01-17T20:12:04.705Z,159255.53
2023-01-17T20:15:09.208Z,159245.09
2023-01-17T20:18:13.864Z,159237.28
2023-01-17T20:21:20.804Z,159246.41
2023-01-17T20:24:24.777Z,159234.69
2023-01-17T20:27:28.870Z,159242.50
2023-01-17T20:30:34.506Z,159250.31
2023-01-17T20:33:39.743Z,159235.94
2023-01-17T20:36:44.546Z,159224.22
2023-01-17T20:39:48.526Z,159213.81
2023-01-17T20:42:52.477Z,159193.03
2023-01-17T20:45:57.262Z,159222.97
2023-01-17T20:49:07.563Z,159206.00
2023-01-17T20:52:13.983Z,159194.34
2023-01-17T20:55:19.480Z,159191.72
2023-01-17T20:58:23.631Z,159172.16
2023-01-17T21:01:27.928Z,159166.94
2023-01-17T21:04:32.429Z,159151.31
2023-01-17T21:07:37.212Z,159140.88
2023-01-17T21:10:49.340Z,159122.66
2023-01-17T21:13:53.622Z,159116.09
2023-01-17T21:16:58.043Z,159108.28
2023-01-17T21:20:06.624Z,159103.13
2023-01-17T21:23:18.069Z,159109.63
2023-01-17T21:26:23.000Z,159105.72
2023-01-17T21:29:31.515Z,159077.09
2023-01-17T21:32:35.396Z,159053.66
2023-01-17T21:35:39.395Z,159056.25
2023-01-17T21:38:43.587Z,159053.66
2023-01-17T21:41:50.795Z,159067.97
2023-01-17T21:44:55.781Z,159126.56
2023-01-17T21:47:59.859Z,159117.41
2023-01-17T21:51:07.910Z,159117.41
2023-01-17T21:54:11.955Z,159123.97
2023-01-17T21:57:37.525Z,159133.06
2023-01-17T22:00:44.628Z,159116.09
2023-01-17T22:03:59.616Z,159127.88
2023-01-17T22:07:03.780Z,159118.75
2023-01-17T22:10:08.365Z,159104.38
2023-01-17T22:13:18.043Z,159092.66
2023-01-17T22:16:23.530Z,159094.00
2023-01-17T22:19:27.791Z,159095.31
2023-01-17T22:22:32.800Z,159082.31
2023-01-17T22:25:37.090Z,159061.47
2023-01-17T22:28:42.418Z,159064.06
2023-01-17T22:31:46.706Z,159062.75
2023-01-17T22:34:50.666Z,159052.34
2023-01-17T22:37:55.235Z,159047.13
2023-01-17T22:41:10.253Z,159039.31
2023-01-17T22:44:13.945Z,159027.59
2023-01-17T22:47:17.591Z,159022.38
2023-01-17T22:50:23.379Z,159009.34
2023-01-17T22:53:28.238Z,159010.66
2023-01-17T22:56:33.567Z,159015.88
2023-01-17T22:59:37.641Z,159009.34
2023-01-17T23:02:42.213Z,159002.84
2023-01-17T23:05:46.721Z,159008.06
2023-01-17T23:08:52.439Z,159009.34
2023-01-17T23:11:56.344Z,159013.25
2023-01-17T23:15:18.985Z,159004.16
2023-01-17T23:18:41.661Z,159008.06
2023-01-17T23:22:04.559Z,158997.63
2023-01-17T23:25:11.935Z,159000.25
2023-01-17T23:28:20.689Z,159018.47
2023-01-17T23:31:24.903Z,159005.44
2023-01-17T23:34:28.663Z,158995.03
2023-01-17T23:37:51.327Z,158982.00
2023-01-17T23:41:22.797Z,158976.78
2023-01-17T23:44:31.606Z,158974.19
2023-01-17T23:47:35.825Z,158971.56
2023-01-17T23:50:42.272Z,158968.97
2023-01-17T23:53:46.012Z,158966.38
2023-01-17T23:56:50.177Z,158970.28
2023-01-17T23:59:54.494Z,158963.75
